CheckWX is a tool to help pilots better visualize weather data.  It is not intended as a substitute for an official pre-flight weather briefing.

17:41:50 UTC

ETHA METAR
Altenstadt Army Airfield Airport
Altenstadt, Germany
Current

22 mins ago

ETHA 211720Z AUTO 27007KT //// // ////// 22/14 Q1024 ///
Observed
Jul-21 @ 17:20 UTC
Wind
  • 270° at 7 KTS
Visibility
Temperature
22°C / 72°F
Dewpoint
14°C / 57°F
Humidity
61%
Altimeter
30.24" Hg
Pressure
1023.92 hPa
Previous

1 hour ago

ETHA 211620Z AUTO 28008KT //// // ////// 23/14 Q1024 ///
Observed
Jul-21 @ 16:20 UTC
Wind
  • 280° at 8 KTS
Visibility
Temperature
23°C / 73°F
Dewpoint
14°C / 57°F
Humidity
57%
Altimeter
30.24" Hg
Pressure
1023.92 hPa
Previous

2 hours ago

ETHA 211520Z AUTO 29012KT //// // ////// 23/15 Q1024 ///
Observed
Jul-21 @ 15:20 UTC
Wind
  • 290° at 12 KTS
Visibility
Temperature
23°C / 73°F
Dewpoint
15°C / 59°F
Humidity
61%
Altimeter
30.24" Hg
Pressure
1023.92 hPa